Time;durP1;ratioP1;P1;durP2;ratioP2;P2;SDS_P1;SDS_P2;PMS_P1;PMS_P2;Temp;Humidity;BMP_temperature;BMP_pressure;BME280_temperature;BME280_humidity;BME280_pressure;Samples;Min_cycle;Max_cycle;Signal;HPM_P1;HPM_P2
2022/03/24 00:00:51;;;;;;;17.23;10.63;;;;;;;7.68;94.82;100182.09;5000946;28;20282;-77
2022/03/24 00:03:20;;;;;;;16.10;10.73;;;;;;;7.68;95.80;100171.56;5002323;28;20252;-77
2022/03/24 00:05:55;;;;;;;15.00;11.00;;;;;;;7.52;97.02;100177.41;5002033;28;20211;-77
2022/03/24 00:08:24;;;;;;;19.53;11.23;;;;;;;7.50;98.71;100177.47;5014346;28;20195;-79
2022/03/24 00:10:54;;;;;;;18.50;10.47;;;;;;;7.00;100.00;100177.44;5000161;28;20206;-78
2022/03/24 00:13:24;;;;;;;16.27;10.43;;;;;;;7.06;100.00;100181.66;5001577;28;20642;-77
2022/03/24 00:15:54;;;;;;;20.03;11.07;;;;;;;6.78;100.00;100181.69;4998971;28;20191;-77
2022/03/24 00:18:25;;;;;;;15.07;10.57;;;;;;;6.91;100.00;100182.13;4997569;28;20238;-77
2022/03/24 00:20:55;;;;;;;16.77;11.00;;;;;;;6.91;100.00;100183.00;4997088;28;20195;-77
2022/03/24 00:23:23;;;;;;;17.17;11.60;;;;;;;6.94;100.00;100176.75;5003160;28;20195;-77
2022/03/24 00:25:51;;;;;;;18.80;12.20;;;;;;;6.77;100.00;100180.81;5000515;28;20195;-77
2022/03/24 00:28:20;;;;;;;23.83;12.13;;;;;;;6.74;100.00;100183.53;5003583;28;20207;-78
2022/03/24 00:30:48;;;;;;;17.00;11.90;;;;;;;6.81;100.00;100190.34;4997562;28;20199;-77
2022/03/24 00:33:19;;;;;;;20.33;12.90;;;;;;;6.77;100.00;100185.22;4999282;28;20658;-77
2022/03/24 00:35:48;;;;;;;19.43;13.10;;;;;;;6.77;100.00;100185.22;4997895;28;20211;-78
2022/03/24 00:38:17;;;;;;;19.40;12.27;;;;;;;6.72;100.00;100192.41;4990446;28;20215;-78
2022/03/24 00:40:48;;;;;;;17.43;12.60;;;;;;;6.69;100.00;100185.47;4997022;28;20646;-77
2022/03/24 00:43:16;;;;;;;20.33;11.50;;;;;;;6.51;100.00;100183.41;5001891;28;20705;-77
2022/03/24 00:45:45;;;;;;;19.87;12.60;;;;;;;6.40;100.00;100181.09;5000497;28;20248;-77
2022/03/24 00:48:13;;;;;;;17.13;12.47;;;;;;;6.29;100.00;100183.22;4998247;28;20204;-78
2022/03/24 00:50:43;;;;;;;17.30;11.83;;;;;;;6.60;100.00;100176.09;4999367;28;20199;-77
2022/03/24 00:53:13;;;;;;;15.87;11.83;;;;;;;6.41;100.00;100174.06;5000895;28;20206;-77
2022/03/24 00:55:41;;;;;;;18.00;12.30;;;;;;;6.52;100.00;100175.47;5001278;28;20275;-77
2022/03/24 00:58:10;;;;;;;20.90;13.50;;;;;;;6.64;100.00;100170.72;4997028;28;20228;-77
2022/03/24 01:00:40;;;;;;;21.00;12.63;;;;;;;6.50;100.00;100168.53;4999234;28;20245;-77
2022/03/24 01:03:10;;;;;;;17.87;12.30;;;;;;;6.26;100.00;100163.09;5046271;28;20197;-77
2022/03/24 01:05:38;;;;;;;21.87;12.77;;;;;;;6.01;100.00;100167.38;5046016;28;20201;-77
2022/03/24 01:08:09;;;;;;;19.23;12.47;;;;;;;6.04;100.00;100169.91;5048916;28;20251;-77
2022/03/24 01:10:38;;;;;;;25.63;13.17;;;;;;;5.96;100.00;100169.25;5051193;28;20192;-77
2022/03/24 01:13:08;;;;;;;23.37;12.83;;;;;;;5.96;100.00;100175.38;5049998;28;20197;-77
2022/03/24 01:15:38;;;;;;;17.97;13.13;;;;;;;5.71;100.00;100175.19;5047124;28;20691;-77
2022/03/24 01:18:07;;;;;;;19.07;12.30;;;;;;;5.92;100.00;100171.13;5009130;28;20583;-77
2022/03/24 01:20:36;;;;;;;17.27;11.93;;;;;;;5.81;100.00;100174.94;5004622;28;20302;-77
2022/03/24 01:23:04;;;;;;;17.83;11.80;;;;;;;5.83;100.00;100167.88;5007731;28;20286;-77
2022/03/24 01:25:36;;;;;;;18.17;12.30;;;;;;;5.68;100.00;100169.13;5005630;28;20257;-77
2022/03/24 01:28:05;;;;;;;19.87;12.63;;;;;;;5.71;100.00;100159.44;5009834;28;20201;-77
2022/03/24 01:30:34;;;;;;;18.50;12.47;;;;;;;5.61;100.00;100162.34;5010757;28;20203;-77
2022/03/24 01:33:02;;;;;;;21.23;12.70;;;;;;;5.56;100.00;100158.97;5010052;28;20605;-77
2022/03/24 01:35:31;;;;;;;18.03;12.23;;;;;;;5.62;100.00;100164.94;5005864;28;20765;-77
2022/03/24 01:38:00;;;;;;;18.17;12.87;;;;;;;5.47;100.00;100166.19;5007143;28;20734;-77
2022/03/24 01:40:28;;;;;;;21.57;13.33;;;;;;;5.53;100.00;100157.31;5006887;28;20206;-77
2022/03/24 01:42:59;;;;;;;18.50;12.20;;;;;;;5.56;100.00;100151.09;5012280;28;20222;-76
2022/03/24 01:45:27;;;;;;;19.70;13.03;;;;;;;5.47;100.00;100154.81;5013478;28;20198;-77
2022/03/24 01:47:56;;;;;;;17.67;12.63;;;;;;;5.61;100.00;100155.34;5013141;28;20205;-77
2022/03/24 01:50:25;;;;;;;19.50;12.90;;;;;;;5.41;100.00;100157.66;5051995;28;20211;-77
2022/03/24 01:52:54;;;;;;;22.47;12.40;;;;;;;5.37;100.00;100156.84;4999966;28;20227;-77
2022/03/24 01:55:23;;;;;;;21.87;12.40;;;;;;;5.47;100.00;100157.47;5003157;28;20192;-77
2022/03/24 01:57:52;;;;;;;18.10;12.43;;;;;;;5.40;100.00;100156.78;5002909;28;20223;-77
2022/03/24 02:00:24;;;;;;;19.03;12.27;;;;;;;5.51;100.00;100158.25;4998052;28;20210;-76
2022/03/24 02:02:55;;;;;;;21.47;12.43;;;;;;;5.39;100.00;100148.91;5000591;28;20278;-77
2022/03/24 02:05:23;;;;;;;20.57;12.00;;;;;;;5.37;100.00;100148.09;4993393;28;20199;-77
2022/03/24 02:07:52;;;;;;;18.13;12.07;;;;;;;5.37;100.00;100150.72;4992394;28;20234;-77
2022/03/24 02:10:21;;;;;;;17.57;12.30;;;;;;;5.35;100.00;100153.41;5004742;28;20278;-77
2022/03/24 02:12:52;;;;;;;16.70;11.10;;;;;;;5.27;100.00;100158.00;5001344;28;20203;-77
2022/03/24 02:15:22;;;;;;;18.30;11.97;;;;;;;5.31;100.00;100148.28;5003270;28;20191;-78
2022/03/24 02:17:51;;;;;;;19.80;12.00;;;;;;;5.31;100.00;100146.53;5056610;28;20223;-77
2022/03/24 02:20:20;;;;;;;18.47;12.77;;;;;;;5.24;100.00;100157.22;5001791;28;20202;-77
2022/03/24 02:22:51;;;;;;;18.67;11.60;;;;;;;5.07;100.00;100150.63;5001378;28;20197;-77
2022/03/24 02:25:19;;;;;;;17.70;11.80;;;;;;;4.98;100.00;100157.88;5000741;28;20210;-77
2022/03/24 02:27:49;;;;;;;17.93;12.10;;;;;;;5.14;100.00;100149.59;4998764;28;20203;-77
2022/03/24 02:30:18;;;;;;;17.53;12.47;;;;;;;5.11;100.00;100151.41;4998830;28;20669;-77
2022/03/24 02:32:46;;;;;;;19.83;12.77;;;;;;;5.02;100.00;100149.91;5002774;28;20226;-77
2022/03/24 02:35:15;;;;;;;20.33;12.27;;;;;;;5.18;100.00;100142.47;5003303;28;20251;-77
2022/03/24 02:37:43;;;;;;;16.73;11.93;;;;;;;5.32;100.00;100143.00;5004203;28;20196;-77
2022/03/24 02:40:15;;;;;;;17.87;11.67;;;;;;;5.35;100.00;100136.78;5004158;28;20202;-77
2022/03/24 02:42:45;;;;;;;18.30;13.23;;;;;;;5.33;100.00;100141.22;5001355;28;20226;-77
2022/03/24 02:45:14;;;;;;;19.97;12.67;;;;;;;5.29;100.00;100137.78;5002979;28;20207;-77
2022/03/24 02:47:44;;;;;;;19.27;12.07;;;;;;;5.18;100.00;100143.34;4993891;28;20200;-77
2022/03/24 02:50:12;;;;;;;19.77;12.03;;;;;;;5.14;100.00;100146.97;4995483;28;20199;-78
2022/03/24 02:52:41;;;;;;;18.57;12.83;;;;;;;4.94;100.00;100143.97;5000860;28;20209;-77
2022/03/24 02:55:09;;;;;;;24.57;12.37;;;;;;;5.06;100.00;100148.91;4991756;28;20274;-77
2022/03/24 02:57:40;;;;;;;19.77;12.53;;;;;;;4.85;100.00;100146.84;5004195;28;20720;-77
2022/03/24 03:00:11;;;;;;;20.10;12.90;;;;;;;4.93;100.00;100144.88;5000073;28;20199;-77
2022/03/24 03:02:40;;;;;;;17.17;12.13;;;;;;;4.79;100.00;100149.59;4992060;28;21095;-77
2022/03/24 03:05:10;;;;;;;20.30;12.53;;;;;;;4.64;100.00;100153.47;4989796;28;20192;-77
2022/03/24 03:07:38;;;;;;;21.50;13.63;;;;;;;4.54;100.00;100152.81;4961448;28;20253;-77
2022/03/24 03:10:07;;;;;;;22.57;12.83;;;;;;;4.47;100.00;100155.63;4987760;28;20261;-76
2022/03/24 03:12:36;;;;;;;19.43;12.60;;;;;;;4.37;100.00;100159.34;4983563;28;20666;-77
2022/03/24 03:15:07;;;;;;;20.80;12.83;;;;;;;4.24;100.00;100148.25;4986111;28;20215;-77
2022/03/24 03:17:36;;;;;;;21.70;12.87;;;;;;;4.34;100.00;100157.63;4971096;28;20207;-77
2022/03/24 03:20:07;;;;;;;21.40;13.17;;;;;;;4.23;100.00;100157.03;4960920;28;20228;-76
2022/03/24 03:22:35;;;;;;;20.10;12.77;;;;;;;4.20;100.00;100157.09;4919740;28;20205;-77
2022/03/24 03:25:05;;;;;;;20.63;12.00;;;;;;;4.27;100.00;100154.31;4909908;29;20209;-77
2022/03/24 03:27:33;;;;;;;18.97;12.17;;;;;;;4.03;100.00;100158.31;4993828;28;20677;-77
2022/03/24 03:30:02;;;;;;;18.40;13.13;;;;;;;3.98;100.00;100159.31;5005444;28;20195;-77
2022/03/24 03:32:34;;;;;;;17.40;12.73;;;;;;;4.13;100.00;100164.22;5009728;28;20202;-77
2022/03/24 03:35:03;;;;;;;18.97;12.67;;;;;;;4.03;100.00;100154.81;5008959;28;20247;-77
2022/03/24 03:37:31;;;;;;;20.87;11.87;;;;;;;3.95;100.00;100157.59;5026250;28;20197;-77
2022/03/24 03:39:59;;;;;;;22.80;13.33;;;;;;;3.78;100.00;100161.50;5027705;28;20229;-77
2022/03/24 03:42:28;;;;;;;21.70;13.17;;;;;;;3.77;100.00;100160.63;4964019;28;20239;-77
2022/03/24 03:44:57;;;;;;;18.10;12.70;;;;;;;3.78;100.00;100159.72;4964185;28;20259;-77
2022/03/24 03:47:28;;;;;;;20.37;12.70;;;;;;;3.78;100.00;100157.13;4968829;28;20687;-77
2022/03/24 03:49:58;;;;;;;18.90;13.03;;;;;;;3.85;100.00;100166.56;4969901;28;20199;-77
2022/03/24 03:52:32;;;;;;;19.30;12.73;;;;;;;3.85;100.00;100166.56;5003795;28;20228;-78
2022/03/24 03:55:00;;;;;;;18.23;12.77;;;;;;;3.73;100.00;100169.44;5024895;28;20205;-77
2022/03/24 03:57:29;;;;;;;20.70;12.80;;;;;;;3.89;100.00;100164.75;5023977;28;20680;-77
2022/03/24 04:00:52;;;;;;;22.53;13.67;;;;;;;3.82;100.00;100169.25;5016322;28;20218;-77
2022/03/24 04:02:45;;;;;;;19.53;12.80;;;;;;;3.79;100.00;100168.47;4990422;28;20246;-76
2022/03/24 04:05:16;;;;;;;22.53;12.87;;;;;;;3.63;100.00;100158.28;4994881;28;20210;-77
2022/03/24 04:07:45;;;;;;;20.17;12.70;;;;;;;3.78;100.00;100162.34;5000407;28;20278;-77
2022/03/24 04:10:13;;;;;;;20.23;12.47;;;;;;;3.76;100.00;100156.25;4996145;28;20199;-77
2022/03/24 04:12:43;;;;;;;21.53;12.83;;;;;;;3.71;100.00;100158.97;5003594;28;20191;-77
2022/03/24 04:15:12;;;;;;;21.53;13.57;;;;;;;3.72;100.00;100154.59;4998103;28;20256;-77
2022/03/24 04:17:41;;;;;;;17.77;12.70;;;;;;;3.67;100.00;100151.22;4993486;28;20198;-77
2022/03/24 04:20:12;;;;;;;21.07;12.80;;;;;;;3.63;100.00;100157.41;4999546;28;20223;-77
2022/03/24 04:22:41;;;;;;;22.33;13.23;;;;;;;3.61;100.00;100160.06;5001762;28;20641;-77
2022/03/24 04:25:10;;;;;;;19.73;12.83;;;;;;;3.59;100.00;100150.53;5008784;28;20202;-77
2022/03/24 04:27:38;;;;;;;19.83;12.87;;;;;;;3.56;100.00;100153.19;5011494;28;20229;-77
2022/03/24 04:30:07;;;;;;;20.33;12.77;;;;;;;3.43;100.00;100155.19;5001339;28;20195;-77
2022/03/24 04:32:35;;;;;;;21.93;13.43;;;;;;;3.54;100.00;100153.22;4995878;28;20191;-77
2022/03/24 04:35:03;;;;;;;19.50;13.43;;;;;;;3.45;100.00;100158.63;4998066;28;20207;-79
2022/03/24 04:37:34;;;;;;;24.60;13.73;;;;;;;3.41;100.00;100163.06;5002857;28;20206;-77
2022/03/24 04:40:07;;;;;;;21.27;13.23;;;;;;;3.36;100.00;100157.03;4998992;28;20265;-77
2022/03/24 04:42:36;;;;;;;18.13;13.50;;;;;;;3.44;100.00;100163.00;4998487;28;20235;-77
2022/03/24 04:45:05;;;;;;;19.47;13.33;;;;;;;3.38;100.00;100157.91;5000001;28;20187;-77
2022/03/24 04:47:35;;;;;;;22.27;13.17;;;;;;;3.34;100.00;100163.19;4995564;28;20256;-77
2022/03/24 04:50:04;;;;;;;19.57;13.50;;;;;;;3.33;100.00;100154.47;5003529;28;20195;-77
2022/03/24 04:52:36;;;;;;;18.50;12.90;;;;;;;3.26;100.00;100163.34;4997814;28;20270;-77
2022/03/24 04:55:09;;;;;;;20.53;13.37;;;;;;;3.35;100.00;100157.94;5004427;28;20210;-77
2022/03/24 04:57:38;;;;;;;22.60;13.10;;;;;;;3.40;100.00;100160.47;4996735;28;20203;-77
2022/03/24 05:00:09;;;;;;;20.60;13.03;;;;;;;3.28;100.00;100164.19;5001300;28;20248;-77
2022/03/24 05:02:38;;;;;;;20.87;13.73;;;;;;;3.28;100.00;100158.97;4999868;28;20192;-77
2022/03/24 05:05:08;;;;;;;20.97;13.60;;;;;;;3.26;100.00;100165.94;5003044;28;20199;-77
2022/03/24 05:07:36;;;;;;;21.73;13.33;;;;;;;3.22;100.00;100168.66;5006369;28;20241;-77
2022/03/24 05:10:08;;;;;;;20.17;13.63;;;;;;;3.16;100.00;100160.03;5005946;28;20203;-77
2022/03/24 05:12:39;;;;;;;21.73;14.17;;;;;;;3.16;100.00;100161.78;5003021;28;20206;-79
2022/03/24 05:15:12;;;;;;;17.53;13.13;;;;;;;3.05;100.00;100174.19;5003181;28;20672;-77
2022/03/24 05:17:41;;;;;;;21.57;14.17;;;;;;;3.17;100.00;100169.59;5003252;28;20207;-78
2022/03/24 05:20:10;;;;;;;21.57;13.87;;;;;;;3.23;100.00;100170.38;5003251;28;20435;-77
2022/03/24 05:22:40;;;;;;;18.77;13.53;;;;;;;3.19;100.00;100172.22;4998928;28;20203;-77
2022/03/24 05:25:11;;;;;;;19.00;13.03;;;;;;;3.39;100.00;100177.94;5003678;28;20202;-77
2022/03/24 05:27:40;;;;;;;19.80;13.00;;;;;;;3.41;100.00;100181.41;4995075;28;20196;-77
2022/03/24 05:30:09;;;;;;;20.60;13.10;;;;;;;3.49;100.00;100176.03;5002538;28;20203;-77
2022/03/24 05:32:41;;;;;;;21.43;13.50;;;;;;;3.48;100.00;100174.31;5003557;28;20192;-77
2022/03/24 05:35:11;;;;;;;18.30;13.10;;;;;;;3.57;100.00;100178.47;5000526;28;20211;-77
2022/03/24 05:37:39;;;;;;;19.80;13.10;;;;;;;3.58;100.00;100177.59;4998679;28;20199;-77
2022/03/24 05:40:12;;;;;;;22.33;14.40;;;;;;;3.58;100.00;100182.84;5002245;28;20223;-76
2022/03/24 05:42:40;;;;;;;19.40;12.53;;;;;;;3.62;100.00;100180.13;4998528;28;20235;-77
2022/03/24 05:45:10;;;;;;;20.53;13.33;;;;;;;3.49;100.00;100178.66;4997866;28;20195;-77
2022/03/24 05:47:39;;;;;;;22.87;13.40;;;;;;;3.52;100.00;100182.94;5002419;28;20200;-77
2022/03/24 05:50:07;;;;;;;19.53;13.23;;;;;;;3.58;100.00;100185.47;4998524;28;20195;-77
2022/03/24 05:52:37;;;;;;;19.83;13.80;;;;;;;3.64;100.00;100183.56;5000515;28;20211;-77
2022/03/24 05:55:06;;;;;;;20.60;13.53;;;;;;;3.41;100.00;100189.25;5003448;28;20210;-77
2022/03/24 05:57:37;;;;;;;22.63;13.53;;;;;;;3.55;100.00;100188.13;5000712;28;20199;-77
2022/03/24 06:00:07;;;;;;;21.00;14.47;;;;;;;3.56;100.00;100185.47;4999898;28;20230;-77
2022/03/24 06:02:35;;;;;;;22.00;14.40;;;;;;;3.56;100.00;100188.09;5002367;28;20195;-77
2022/03/24 06:05:08;;;;;;;19.90;14.00;;;;;;;3.72;100.00;100189.53;4999173;28;20226;-77
2022/03/24 06:07:37;;;;;;;19.13;14.20;;;;;;;3.72;100.00;100188.66;4998557;28;20203;-77
2022/03/24 06:10:08;;;;;;;20.13;14.10;;;;;;;3.78;100.00;100187.69;4992153;28;20199;-77
2022/03/24 06:12:38;;;;;;;22.17;14.60;;;;;;;3.93;100.00;100184.75;5051863;28;20197;-78
2022/03/24 06:15:08;;;;;;;21.97;14.47;;;;;;;3.83;100.00;100189.31;5050929;28;20258;-77
2022/03/24 06:17:36;;;;;;;24.47;13.80;;;;;;;3.94;100.00;100189.97;5045867;28;20192;-77
2022/03/24 06:20:08;;;;;;;22.63;14.30;;;;;;;4.00;100.00;100188.97;5045088;28;20263;-77
2022/03/24 06:22:43;;;;;;;20.83;14.30;;;;;;;4.05;100.00;100192.34;5049778;28;20204;-77
2022/03/24 06:25:11;;;;;;;23.77;14.93;;;;;;;4.05;100.00;100194.13;5041820;28;20217;-77
2022/03/24 06:27:41;;;;;;;25.30;15.00;;;;;;;4.03;100.00;100202.88;5048703;28;20209;-77
2022/03/24 06:30:11;;;;;;;25.73;14.93;;;;;;;4.05;100.00;100192.34;5051390;28;20211;-77
2022/03/24 06:32:39;;;;;;;24.57;15.30;;;;;;;4.06;100.00;100195.88;5044686;28;20200;-77
2022/03/24 06:35:08;;;;;;;23.37;14.60;;;;;;;4.19;100.00;100198.19;5042275;28;20199;-77
2022/03/24 06:37:40;;;;;;;20.40;14.27;;;;;;;4.07;100.00;100195.81;5008069;28;20652;-77
2022/03/24 06:40:10;;;;;;;24.97;15.17;;;;;;;4.00;100.00;100205.56;4998346;28;20226;-77
2022/03/24 06:42:39;;;;;;;22.93;14.53;;;;;;;4.18;100.00;100204.31;4991377;28;20286;-77
2022/03/24 06:45:10;;;;;;;24.80;14.97;;;;;;;4.20;100.00;100199.91;5001511;28;20210;-77
2022/03/24 06:47:39;;;;;;;22.90;15.03;;;;;;;4.38;100.00;100197.78;4996986;28;20202;-78
2022/03/24 06:50:10;;;;;;;22.13;14.27;;;;;;;4.53;100.00;100207.91;5002984;28;20237;-77
2022/03/24 06:52:38;;;;;;;23.53;15.30;;;;;;;4.63;100.00;100195.47;5001027;28;20203;-77
2022/03/24 06:55:08;;;;;;;23.53;14.77;;;;;;;4.67;100.00;100205.00;5004690;28;20199;-77
2022/03/24 06:57:37;;;;;;;21.63;14.47;;;;;;;4.78;100.00;100201.22;4996331;28;20245;-77
2022/03/24 07:00:13;;;;;;;24.23;14.87;;;;;;;4.77;100.00;100202.13;5001190;28;20256;-77
2022/03/24 07:02:42;;;;;;;25.07;15.13;;;;;;;4.92;100.00;100205.28;5000164;28;20191;-77
2022/03/24 07:05:11;;;;;;;28.80;16.30;;;;;;;5.04;100.00;100203.22;4995000;28;20208;-77
2022/03/24 07:07:41;;;;;;;21.83;15.37;;;;;;;5.20;100.00;100208.09;5000499;28;20287;-78
2022/03/24 07:10:10;;;;;;;23.80;15.37;;;;;;;5.38;100.00;100207.63;4999583;28;20236;-78
2022/03/24 07:12:39;;;;;;;23.37;15.97;;;;;;;5.50;100.00;100206.44;5002773;28;20283;-78
2022/03/24 07:15:11;;;;;;;21.23;15.57;;;;;;;5.61;100.00;100199.16;5003739;28;20211;-77
2022/03/24 07:17:40;;;;;;;22.60;16.00;;;;;;;5.76;100.00;100201.34;5003686;28;20229;-78
2022/03/24 07:20:10;;;;;;;30.53;16.77;;;;;;;5.90;100.00;100199.25;4998424;28;20195;-77
2022/03/24 07:22:39;;;;;;;24.07;16.13;;;;;;;6.00;100.00;100213.84;5051183;28;20204;-77
2022/03/24 07:25:08;;;;;;;24.10;16.37;;;;;;;6.11;100.00;100204.78;5045545;28;20645;-77
2022/03/24 07:27:37;;;;;;;22.73;15.73;;;;;;;6.14;100.00;100202.06;5048069;28;20193;-78
2022/03/24 07:30:06;;;;;;;23.00;16.70;;;;;;;6.19;100.00;100201.03;5045588;28;20197;-77
2022/03/24 07:32:38;;;;;;;27.83;16.80;;;;;;;6.40;100.00;100204.78;5007203;28;20248;-77
2022/03/24 07:35:14;;;;;;;22.20;16.30;;;;;;;6.53;100.00;100200.00;5002789;28;20209;-77
2022/03/24 07:37:43;;;;;;;23.23;16.80;;;;;;;6.62;100.00;100204.13;5007295;28;20375;-77
2022/03/24 07:40:15;;;;;;;24.60;16.93;;;;;;;6.62;100.00;100204.97;5005505;28;20245;-78
2022/03/24 07:42:44;;;;;;;24.03;16.90;;;;;;;6.67;100.00;100208.34;5007229;28;20334;-78
2022/03/24 07:45:13;;;;;;;22.37;16.43;;;;;;;6.82;100.00;100212.25;5005534;28;20198;-77
2022/03/24 07:48:07;;;;;;;25.43;16.80;;;;;;;6.87;100.00;100205.94;5003605;28;20209;-78
2022/03/24 07:50:39;;;;;;;24.80;17.00;;;;;;;7.17;100.00;100203.22;5001649;28;20740;-77
2022/03/24 07:53:30;;;;;;;29.00;16.73;;;;;;;7.39;100.00;100201.56;5010722;28;20439;-77
2022/03/24 07:55:59;;;;;;;24.83;17.30;;;;;;;7.60;100.00;100194.69;5006735;28;20276;-78
2022/03/24 07:58:29;;;;;;;27.53;16.47;;;;;;;7.72;100.00;100196.03;4998029;28;20187;-78
2022/03/24 08:00:59;;;;;;;27.40;18.10;;;;;;;7.79;100.00;100204.59;5040670;28;20317;-78
2022/03/24 08:03:30;;;;;;;26.13;18.23;;;;;;;8.00;100.00;100201.19;5003543;28;20210;-78
2022/03/24 08:05:58;;;;;;;25.27;16.73;;;;;;;8.04;100.00;100208.94;5001156;28;20217;-78
2022/03/24 08:08:28;;;;;;;27.17;18.33;;;;;;;8.38;100.00;100210.34;4992375;28;20195;-78
2022/03/24 08:10:56;;;;;;;27.37;17.43;;;;;;;8.46;100.00;100205.63;4993298;28;20211;-78
2022/03/24 08:13:25;;;;;;;28.60;16.73;;;;;;;8.69;100.00;100202.09;4990933;28;20195;-79
2022/03/24 08:15:56;;;;;;;26.87;17.43;;;;;;;8.94;100.00;100206.41;5003132;28;20187;-77
2022/03/24 08:18:25;;;;;;;26.53;17.73;;;;;;;9.01;100.00;100203.44;4999179;28;20190;-78
2022/03/24 08:20:56;;;;;;;27.50;18.27;;;;;;;9.18;100.00;100215.97;5003626;28;20287;-78
2022/03/24 08:23:24;;;;;;;34.63;18.53;;;;;;;9.30;100.00;100209.31;5004526;28;20199;-78
2022/03/24 08:25:53;;;;;;;29.10;18.03;;;;;;;9.58;100.00;100198.44;5003853;28;20253;-77
2022/03/24 08:28:22;;;;;;;32.93;17.80;;;;;;;9.75;100.00;100201.22;5003589;28;20207;-78
2022/03/24 08:30:50;;;;;;;27.83;18.10;;;;;;;9.84;100.00;100202.56;5001558;28;20199;-78
2022/03/24 08:33:19;;;;;;;27.43;18.13;;;;;;;9.99;100.00;100204.53;5000399;28;20191;-78
2022/03/24 08:35:47;;;;;;;32.83;18.50;;;;;;;10.21;100.00;100204.41;5004108;28;20195;-78
2022/03/24 08:38:17;;;;;;;28.50;19.07;;;;;;;10.15;100.00;100216.16;5000669;28;20199;-78
2022/03/24 08:40:46;;;;;;;29.03;18.73;;;;;;;10.26;100.00;100208.63;5045732;28;20204;-78
2022/03/24 08:43:18;;;;;;;29.57;18.57;;;;;;;10.58;100.00;100206.25;5028348;28;20241;-78
2022/03/24 08:45:47;;;;;;;30.43;20.00;;;;;;;10.78;100.00;100206.16;5031623;28;20198;-78
2022/03/24 08:48:19;;;;;;;29.53;18.60;;;;;;;10.61;100.00;100198.16;5031528;28;20194;-78
2022/03/24 08:50:47;;;;;;;26.67;19.17;;;;;;;10.85;98.51;100198.78;5028996;28;20210;-78
2022/03/24 08:53:22;;;;;;;26.83;19.47;;;;;;;11.10;97.30;100201.13;5031694;28;20197;-78
2022/03/24 08:55:51;;;;;;;27.23;19.93;;;;;;;11.20;97.55;100199.72;5026072;28;20189;-78
2022/03/24 08:58:21;;;;;;;30.87;19.70;;;;;;;11.59;95.12;100207.47;5017381;28;20204;-78
2022/03/24 09:00:50;;;;;;;28.00;19.87;;;;;;;11.60;93.22;100197.69;5020219;28;20207;-78
2022/03/24 09:03:24;;;;;;;30.57;20.13;;;;;;;11.55;91.06;100200.56;4971987;28;20216;-79
2022/03/24 09:05:52;;;;;;;30.20;20.17;;;;;;;11.92;88.59;100196.91;4963140;28;20204;-78
2022/03/24 09:08:22;;;;;;;29.53;20.23;;;;;;;11.98;84.32;100199.25;4969525;28;20196;-78
2022/03/24 09:10:51;;;;;;;29.80;20.07;;;;;;;11.95;81.16;100199.38;4961434;28;20203;-78
2022/03/24 09:13:22;;;;;;;29.33;20.13;;;;;;;11.84;85.63;100200.91;4967860;28;20208;-79
2022/03/24 09:15:51;;;;;;;30.50;20.27;;;;;;;12.21;85.76;100200.66;4893865;28;20194;-78
2022/03/24 09:18:19;;;;;;;32.00;20.47;;;;;;;12.32;84.79;100200.06;4930984;29;20216;-78
2022/03/24 09:20:48;;;;;;;29.87;19.67;;;;;;;12.77;82.52;100204.66;4934649;28;20209;-78
2022/03/24 09:23:16;;;;;;;27.03;19.70;;;;;;;13.02;78.37;100216.53;4935338;29;20252;-78
2022/03/24 09:25:46;;;;;;;28.97;19.80;;;;;;;13.28;76.54;100213.28;4930575;29;20209;-78
2022/03/24 09:28:15;;;;;;;27.97;20.33;;;;;;;12.54;78.10;100205.06;4898969;29;20240;-78
2022/03/24 09:30:50;;;;;;;32.77;20.43;;;;;;;12.95;77.34;100213.41;4928029;29;20224;-78
2022/03/24 09:33:19;;;;;;;29.83;21.03;;;;;;;13.48;74.11;100209.44;4937707;28;20250;-78
2022/03/24 09:35:50;;;;;;;27.23;20.37;;;;;;;13.71;71.45;100210.75;4980198;28;20253;-79
2022/03/24 09:38:19;;;;;;;29.50;20.10;;;;;;;13.94;68.76;100212.03;4981390;28;20192;-78
2022/03/24 09:40:51;;;;;;;27.30;19.77;;;;;;;14.22;67.06;100201.38;4985815;28;20333;-79
2022/03/24 09:43:22;;;;;;;28.90;20.07;;;;;;;14.40;64.19;100206.50;4985305;28;20236;-78
2022/03/24 09:45:52;;;;;;;28.10;20.57;;;;;;;14.20;59.95;100203.28;4972918;28;20651;-78
2022/03/24 09:48:21;;;;;;;31.67;20.60;;;;;;;14.28;60.79;100205.44;4980930;28;20192;-78
2022/03/24 09:50:51;;;;;;;29.80;20.80;;;;;;;14.21;59.77;100209.47;4979572;28;20249;-78
2022/03/24 09:53:20;;;;;;;26.43;19.87;;;;;;;14.70;57.34;100207.25;4981837;28;20210;-79
2022/03/24 09:55:51;;;;;;;26.87;20.10;;;;;;;15.19;53.91;100196.06;4986247;28;20192;-78
2022/03/24 09:58:25;;;;;;;24.60;18.90;;;;;;;15.50;50.39;100205.53;4983870;28;20202;-79
2022/03/24 10:00:53;;;;;;;29.77;19.90;;;;;;;15.81;50.23;100201.66;4978680;28;20241;-79
2022/03/24 10:03:22;;;;;;;26.43;19.33;;;;;;;15.64;50.66;100204.63;4985319;28;20223;-78
2022/03/24 10:05:56;;;;;;;30.10;20.60;;;;;;;16.11;48.41;100200.47;4978771;28;20298;-78
2022/03/24 10:08:28;;;;;;;27.93;19.73;;;;;;;16.53;48.31;100205.47;4985071;28;20214;-79
2022/03/24 10:11:04;;;;;;;27.17;19.63;;;;;;;16.44;45.95;100208.78;4985998;28;20200;-79
2022/03/24 10:13:43;;;;;;;27.27;19.33;;;;;;;16.74;46.48;100197.72;4982416;28;20199;-79
2022/03/24 10:16:14;;;;;;;32.07;20.00;;;;;;;17.00;46.19;100197.66;4978668;28;20196;-79
2022/03/24 10:19:01;;;;;;;27.50;19.87;;;;;;;17.20;40.15;100198.84;5052767;28;20193;-78
2022/03/24 10:21:30;;;;;;;26.13;18.20;;;;;;;17.20;39.54;100205.06;5042268;28;20629;-79
2022/03/24 10:24:00;;;;;;;28.37;19.70;;;;;;;17.06;37.38;100202.53;5051973;28;20212;-79
2022/03/24 10:26:44;;;;;;;24.47;19.20;;;;;;;16.69;36.75;100196.34;5049111;28;20204;-79
2022/03/24 10:29:14;;;;;;;24.93;20.00;;;;;;;17.08;38.58;100190.75;5046238;28;20192;-78
2022/03/24 10:31:43;;;;;;;29.87;20.47;;;;;;;17.23;37.54;100194.09;5046782;28;20193;-79
2022/03/24 10:34:13;;;;;;;32.00;21.10;;;;;;;17.38;37.03;100190.28;5045825;28;20219;-79
2022/03/24 10:36:45;;;;;;;32.00;20.83;;;;;;;17.62;38.40;100184.88;5007785;28;20203;-79
2022/03/24 10:39:13;;;;;;;32.33;22.33;;;;;;;17.82;39.52;100180.69;5011573;28;20593;-79
2022/03/24 10:41:43;;;;;;;32.03;21.57;;;;;;;17.63;38.99;100183.88;5010513;28;20309;-79
2022/03/24 10:44:14;;;;;;;29.83;22.00;;;;;;;17.92;38.91;100180.81;5007535;28;20225;-79
2022/03/24 10:46:43;;;;;;;28.90;21.33;;;;;;;18.03;38.98;100181.66;5005623;28;20220;-79
2022/03/24 10:49:23;;;;;;;27.27;21.50;;;;;;;18.10;40.42;100178.53;5005218;28;20198;-79
2022/03/24 10:51:56;;;;;;;31.23;23.13;;;;;;;18.62;38.08;100174.34;5004612;28;20221;-79
2022/03/24 10:54:39;;;;;;;37.73;26.67;;;;;;;18.16;38.70;100164.63;5008724;28;20202;-79
2022/03/24 10:57:13;;;;;;;37.87;27.53;;;;;;;18.40;37.09;100169.84;5006429;28;20198;-79
2022/03/24 10:59:47;;;;;;;37.63;26.87;;;;;;;18.52;37.35;100156.28;5005379;28;20640;-79
2022/03/24 11:02:17;;;;;;;32.33;25.13;;;;;;;18.54;37.70;100158.88;5009156;28;20209;-79
2022/03/24 11:04:46;;;;;;;36.93;27.03;;;;;;;18.54;38.00;100165.09;4972578;28;20483;-79
2022/03/24 11:07:25;;;;;;;36.13;26.13;;;;;;;19.25;37.22;100153.94;4981389;28;20223;-79
2022/03/24 11:09:56;;;;;;;40.70;27.73;;;;;;;19.90;35.93;100151.03;5037416;28;20196;-79
2022/03/24 11:12:29;;;;;;;35.93;27.27;;;;;;;20.06;36.46;100152.34;4977745;28;20192;-79
2022/03/24 11:14:59;;;;;;;35.47;26.40;;;;;;;19.88;36.40;100152.13;4981799;28;20191;-79
2022/03/24 11:17:30;;;;;;;37.90;26.60;;;;;;;20.08;35.18;100150.41;4971749;28;20196;-79
2022/03/24 11:20:07;;;;;;;37.53;27.30;;;;;;;19.55;34.97;100147.78;4978087;28;20208;-80
2022/03/24 11:22:44;;;;;;;34.73;27.10;;;;;;;19.94;34.60;100148.91;4981662;28;20210;-79